Vremea mâine în Dej - Romania

Vrei sa afli care e starea vremii acum in Cluj - Romania? Dorim sa iti furnizam starea vremii pentru Cluj - Romania. Starea vremii Cluj - Romania pentru astazi.

Vremea mâine în Dej

Temperatura minimă:
8.5 °C

Temperatura maximă:
23.7 °C

Mâine va fi: Ploi moderate
Precipitații: 86 %
Umiditate: 68%
Viteza maximă vânt mâine:
12.6 km/h

Evoluția vremii in Dej pe ore mâine

Ora: 03:00
Temperatura: °C
Sansa de precipitatii: %
Ora Descriere Temp Se simte Precipitatii Umiditate Vant
00:00Senin11.7°11.7°0%64%NE 1.8 KM/H
01:00Senin11°11°0%67%E 2.2 KM/H
02:00Senin10.4°10.8°0%70%E 3.2 KM/H
03:00Senin9.8°10°0%72%ESE 3.6 KM/H
04:00Senin9.3°9.5°0%75%ESE 3.6 KM/H
05:00Senin8.9°8.7°0%77%ESE 4.3 KM/H
06:00Senin8.5°8.4°0%79%ESE 4 KM/H
07:00Senin9.5°9.4°0%77%ESE 4.3 KM/H
08:00Senin13.7°13.9°0%70%ESE 5 KM/H
09:00Senin16°16°0%64%SE 5 KM/H
10:00Senin17.9°17.9°0%59%SE 5 KM/H
11:00Senin19.6°19.6°0%55%SE 6.1 KM/H
12:00Senin21.1°21.1°0%52%SE 6.5 KM/H
13:00Senin22.3°24.5°0%49%SE 6.5 KM/H
14:00Senin23.2°24.7°0%46%SSE 5.4 KM/H
15:00Thundery outbreaks in nearby23.7°24.8°0%44%SSW 3.6 KM/H
16:00Thundery outbreaks in nearby23.2°24.7°68%46%W 5 KM/H
17:00Patchy light rain in area with thunder20.6°20.6°100%61%WNW 12.6 KM/H
18:00Ploaie ușoară16.4°16.4°100%82%NNW 3.2 KM/H
19:00Patchy light rain in area with thunder15.4°15.4°100%84%N 4.7 KM/H
20:00Patchy rain nearby13.8°14.6°100%83%NNW 3.2 KM/H
21:00Patchy rain nearby12.1°12.1°100%83%NE 2.2 KM/H
22:00Senin11.7°11.7°0%82%ENE 1.1 KM/H
23:00Senin11.3°11.3°0%83%SSE 1.4 KM/H




tutorials